Scott AFB, IL

2:01 AM CDT on August 17, 2017 (GMT -0500)
Scott Air Force Base-Midamerica | | Change Station

Elev 456 ft 38.54 °N, 89.83 °W | Updated 3 minutes ago

Heavy Rain
Heavy Rain Mist
72 °F
Feels Like 72 °F
N
8
Wind Variable Wind from WNW

Today
High -- | Low -- °F
--% Chance of Precip.
Yesterday
High -- | Low -- °F
Precip. -- in
Pressure 29.91 in
Visibility 1.2 miles
Clouds Mostly Cloudy 2200 ft
Overcast 2700 ft
Dew Point 70 °F
Humidity 94%
Rainfall 0.10 in
Snow Depth Not available.
6:15 AM 7:50 PM
Waning Crescent, 25% visible
METAR KBLV 170658Z AUTO 29007KT 1 1/4SM R14R/3000FT +RA BR BKN022 OVC027 22/21 A2991 RMK AO2 VIS 1 1/4V8 RAB31E44DZB44E47RAB47E48DZB48E50RAB50 SLP127 P0010 T02200210
Pressure 29.91 in
Visibility 1.2 miles
Clouds Mostly Cloudy 2200 ft
Overcast 2700 ft
Dew Point 70 °F
Humidity 94%
Rainfall 0.10 in
Snow Depth Not available.
6:15 AM 7:50 PM
Waning Crescent, 25% visible
METAR KBLV 170658Z AUTO 29007KT 1 1/4SM R14R/3000FT +RA BR BKN022 OVC027 22/21 A2991 RMK AO2 VIS 1 1/4V8 RAB31E44DZB44E47RAB47E48DZB48E50RAB50 SLP127 P0010 T02200210

Get Severe Weather Alerts

Thanks for signing up!

Be on the lookout for a verification email in your inbox.

You'll start receiving the daily forecast at 6 AM.

×

10-Day Weather Forecast

Almanac

Astronomy

Aug. 17, 2017 Rise Set
Actual Time
Civil Twilight
Nautical Twilight
Astronomical Twilight
Moon
Length of Visible Light
Length of Day
Tomorrow will be .
, % of the Moon is Illuminated

Today's Extremes

State Highs State Lows

Community

WunderPhotos

Category 6

Welcome to Category 6. This is the collective home for Weather Underground's featured writeups by Dr. Jeff Masters (right), Bob Henson (left), Chris Burt, and other regular contributors.

Nearby

Air Quality

  Air Quality AQ Index Pollutant
Not available.

Snow Depth

Station Depth Elevation

Earthquake Activity

City Distance Mag. Time & Date
Minimum magnitude displayed is 2.5.

Coastal Water Temperatures

Place Temperature

Stations

Nearby Weather Stations

Station Location Temp. Windchill Dew Point Humidity Wind Precip. Elev Updated Type
                   

Watches & Warnings

There are currently no watches in effect.